sensor_id;sensor_type;location;lat;lon;timestamp;P1;durP1;ratioP1;P2;durP2;ratioP2
57593;SDS011;43423;46.510;6.686;2022-07-06T00:00:32;5.57;;;1.40;;
57593;SDS011;43423;46.510;6.686;2022-07-06T00:03:03;3.15;;;1.40;;
57593;SDS011;43423;46.510;6.686;2022-07-06T00:05:29;1.40;;;1.30;;
57593;SDS011;43423;46.510;6.686;2022-07-06T00:07:54;1.40;;;1.23;;
57593;SDS011;43423;46.510;6.686;2022-07-06T00:10:20;4.03;;;1.40;;
57593;SDS011;43423;46.510;6.686;2022-07-06T00:12:45;1.75;;;1.40;;
57593;SDS011;43423;46.510;6.686;2022-07-06T00:15:11;3.60;;;1.42;;
57593;SDS011;43423;46.510;6.686;2022-07-06T00:17:37;4.43;;;1.70;;
57593;SDS011;43423;46.510;6.686;2022-07-06T00:20:02;1.60;;;1.40;;
57593;SDS011;43423;46.510;6.686;2022-07-06T00:22:28;2.10;;;1.05;;
57593;SDS011;43423;46.510;6.686;2022-07-06T00:24:54;1.40;;;1.30;;
57593;SDS011;43423;46.510;6.686;2022-07-06T00:27:19;2.85;;;1.50;;
57593;SDS011;43423;46.510;6.686;2022-07-06T00:29:44;2.20;;;1.50;;
57593;SDS011;43423;46.510;6.686;2022-07-06T00:32:11;1.30;;;1.20;;
57593;SDS011;43423;46.510;6.686;2022-07-06T00:34:36;2.45;;;1.25;;
57593;SDS011;43423;46.510;6.686;2022-07-06T00:37:05;2.38;;;1.30;;
57593;SDS011;43423;46.510;6.686;2022-07-06T00:39:32;3.40;;;1.30;;
57593;SDS011;43423;46.510;6.686;2022-07-06T00:41:58;2.38;;;1.33;;
57593;SDS011;43423;46.510;6.686;2022-07-06T00:44:24;1.50;;;1.40;;
57593;SDS011;43423;46.510;6.686;2022-07-06T00:46:50;3.78;;;1.65;;
57593;SDS011;43423;46.510;6.686;2022-07-06T00:49:16;5.47;;;1.70;;
57593;SDS011;43423;46.510;6.686;2022-07-06T00:52:00;3.10;;;1.52;;
57593;SDS011;43423;46.510;6.686;2022-07-06T00:54:26;2.47;;;1.55;;
57593;SDS011;43423;46.510;6.686;2022-07-06T00:56:56;3.13;;;1.35;;
57593;SDS011;43423;46.510;6.686;2022-07-06T00:59:23;1.60;;;1.20;;
57593;SDS011;43423;46.510;6.686;2022-07-06T01:01:50;1.45;;;1.35;;
57593;SDS011;43423;46.510;6.686;2022-07-06T01:04:16;2.78;;;1.42;;
57593;SDS011;43423;46.510;6.686;2022-07-06T01:06:41;1.20;;;1.10;;
57593;SDS011;43423;46.510;6.686;2022-07-06T01:09:11;3.10;;;1.35;;
57593;SDS011;43423;46.510;6.686;2022-07-06T01:11:36;3.72;;;1.45;;
57593;SDS011;43423;46.510;6.686;2022-07-06T01:14:02;7.22;;;1.40;;
57593;SDS011;43423;46.510;6.686;2022-07-06T01:16:28;1.83;;;1.20;;
57593;SDS011;43423;46.510;6.686;2022-07-06T01:18:53;4.80;;;1.63;;
57593;SDS011;43423;46.510;6.686;2022-07-06T01:21:19;4.88;;;1.25;;
57593;SDS011;43423;46.510;6.686;2022-07-06T01:23:45;1.85;;;1.23;;
57593;SDS011;43423;46.510;6.686;2022-07-06T01:26:21;5.15;;;1.58;;
57593;SDS011;43423;46.510;6.686;2022-07-06T01:28:50;1.40;;;1.30;;
57593;SDS011;43423;46.510;6.686;2022-07-06T01:31:20;1.40;;;1.30;;
57593;SDS011;43423;46.510;6.686;2022-07-06T01:33:48;3.67;;;1.25;;
57593;SDS011;43423;46.510;6.686;2022-07-06T01:36:15;1.55;;;1.40;;
57593;SDS011;43423;46.510;6.686;2022-07-06T01:41:14;2.13;;;1.58;;
57593;SDS011;43423;46.510;6.686;2022-07-06T01:43:40;3.33;;;1.48;;
57593;SDS011;43423;46.510;6.686;2022-07-06T01:46:05;1.75;;;1.30;;
57593;SDS011;43423;46.510;6.686;2022-07-06T01:48:31;2.05;;;1.50;;
57593;SDS011;43423;46.510;6.686;2022-07-06T01:50:57;2.40;;;1.50;;
57593;SDS011;43423;46.510;6.686;2022-07-06T01:53:22;2.80;;;1.55;;
57593;SDS011;43423;46.510;6.686;2022-07-06T01:55:48;2.35;;;1.38;;
57593;SDS011;43423;46.510;6.686;2022-07-06T01:58:14;2.60;;;1.52;;
57593;SDS011;43423;46.510;6.686;2022-07-06T02:00:40;1.42;;;1.33;;
57593;SDS011;43423;46.510;6.686;2022-07-06T02:03:05;2.85;;;1.63;;
57593;SDS011;43423;46.510;6.686;2022-07-06T02:05:31;5.55;;;1.40;;
57593;SDS011;43423;46.510;6.686;2022-07-06T02:07:56;1.27;;;1.20;;
57593;SDS011;43423;46.510;6.686;2022-07-06T02:10:22;2.47;;;1.63;;
57593;SDS011;43423;46.510;6.686;2022-07-06T02:12:47;1.33;;;1.23;;
57593;SDS011;43423;46.510;6.686;2022-07-06T02:15:13;1.80;;;1.50;;
57593;SDS011;43423;46.510;6.686;2022-07-06T02:17:38;2.42;;;1.38;;
57593;SDS011;43423;46.510;6.686;2022-07-06T02:20:04;1.63;;;1.52;;
57593;SDS011;43423;46.510;6.686;2022-07-06T02:22:31;1.98;;;1.50;;
57593;SDS011;43423;46.510;6.686;2022-07-06T02:24:56;1.73;;;1.33;;
57593;SDS011;43423;46.510;6.686;2022-07-06T02:27:22;1.85;;;1.38;;
57593;SDS011;43423;46.510;6.686;2022-07-06T02:29:47;3.80;;;1.40;;
57593;SDS011;43423;46.510;6.686;2022-07-06T02:32:13;11.50;;;2.15;;
57593;SDS011;43423;46.510;6.686;2022-07-06T02:34:38;6.07;;;2.38;;
57593;SDS011;43423;46.510;6.686;2022-07-06T02:37:04;2.53;;;1.63;;
57593;SDS011;43423;46.510;6.686;2022-07-06T02:39:29;2.05;;;1.50;;
57593;SDS011;43423;46.510;6.686;2022-07-06T02:41:55;2.13;;;1.52;;
57593;SDS011;43423;46.510;6.686;2022-07-06T02:44:20;2.13;;;1.13;;
57593;SDS011;43423;46.510;6.686;2022-07-06T02:46:46;3.40;;;1.63;;
57593;SDS011;43423;46.510;6.686;2022-07-06T02:49:11;2.47;;;1.40;;
57593;SDS011;43423;46.510;6.686;2022-07-06T02:51:37;4.53;;;1.80;;
57593;SDS011;43423;46.510;6.686;2022-07-06T02:54:02;1.73;;;1.38;;
57593;SDS011;43423;46.510;6.686;2022-07-06T02:56:28;1.40;;;1.30;;
57593;SDS011;43423;46.510;6.686;2022-07-06T02:58:53;3.88;;;1.58;;
57593;SDS011;43423;46.510;6.686;2022-07-06T03:01:19;1.30;;;1.20;;
57593;SDS011;43423;46.510;6.686;2022-07-06T03:03:44;3.78;;;1.30;;
57593;SDS011;43423;46.510;6.686;2022-07-06T03:06:10;1.65;;;1.30;;
57593;SDS011;43423;46.510;6.686;2022-07-06T03:08:35;5.22;;;1.42;;
57593;SDS011;43423;46.510;6.686;2022-07-06T03:11:01;4.25;;;2.25;;
57593;SDS011;43423;46.510;6.686;2022-07-06T03:13:26;5.60;;;1.48;;
57593;SDS011;43423;46.510;6.686;2022-07-06T03:15:53;1.40;;;1.30;;
57593;SDS011;43423;46.510;6.686;2022-07-06T03:18:19;2.50;;;1.33;;
57593;SDS011;43423;46.510;6.686;2022-07-06T03:20:44;3.15;;;1.42;;
57593;SDS011;43423;46.510;6.686;2022-07-06T03:23:10;2.05;;;1.60;;
57593;SDS011;43423;46.510;6.686;2022-07-06T03:25:36;1.73;;;1.50;;
57593;SDS011;43423;46.510;6.686;2022-07-06T03:28:01;4.90;;;1.30;;
57593;SDS011;43423;46.510;6.686;2022-07-06T03:30:27;1.25;;;1.15;;
57593;SDS011;43423;46.510;6.686;2022-07-06T03:32:52;4.05;;;1.63;;
57593;SDS011;43423;46.510;6.686;2022-07-06T03:35:18;2.38;;;1.40;;
57593;SDS011;43423;46.510;6.686;2022-07-06T03:37:43;1.55;;;1.45;;
57593;SDS011;43423;46.510;6.686;2022-07-06T03:40:09;2.03;;;1.45;;
57593;SDS011;43423;46.510;6.686;2022-07-06T03:42:35;2.28;;;1.40;;
57593;SDS011;43423;46.510;6.686;2022-07-06T03:45:03;1.55;;;1.40;;
57593;SDS011;43423;46.510;6.686;2022-07-06T03:47:29;2.95;;;1.50;;
57593;SDS011;43423;46.510;6.686;2022-07-06T03:49:55;2.78;;;1.70;;
57593;SDS011;43423;46.510;6.686;2022-07-06T03:52:21;2.13;;;1.38;;
57593;SDS011;43423;46.510;6.686;2022-07-06T03:54:47;1.38;;;1.20;;
57593;SDS011;43423;46.510;6.686;2022-07-06T03:57:12;3.75;;;1.65;;
57593;SDS011;43423;46.510;6.686;2022-07-06T03:59:39;3.47;;;1.95;;
57593;SDS011;43423;46.510;6.686;2022-07-06T04:02:05;6.28;;;1.58;;
57593;SDS011;43423;46.510;6.686;2022-07-06T04:04:31;3.15;;;1.42;;
57593;SDS011;43423;46.510;6.686;2022-07-06T04:06:57;5.80;;;1.50;;
57593;SDS011;43423;46.510;6.686;2022-07-06T04:09:22;2.88;;;1.50;;
57593;SDS011;43423;46.510;6.686;2022-07-06T04:11:47;1.85;;;1.50;;
57593;SDS011;43423;46.510;6.686;2022-07-06T04:14:13;2.10;;;1.40;;
57593;SDS011;43423;46.510;6.686;2022-07-06T04:16:38;2.13;;;1.33;;
57593;SDS011;43423;46.510;6.686;2022-07-06T04:19:04;4.40;;;1.70;;
57593;SDS011;43423;46.510;6.686;2022-07-06T04:21:29;2.72;;;1.40;;
57593;SDS011;43423;46.510;6.686;2022-07-06T04:23:55;3.50;;;1.60;;
57593;SDS011;43423;46.510;6.686;2022-07-06T04:26:20;1.40;;;1.30;;
57593;SDS011;43423;46.510;6.686;2022-07-06T04:28:46;2.97;;;1.80;;
57593;SDS011;43423;46.510;6.686;2022-07-06T04:31:12;1.90;;;1.35;;
57593;SDS011;43423;46.510;6.686;2022-07-06T04:33:40;5.63;;;1.70;;
57593;SDS011;43423;46.510;6.686;2022-07-06T04:36:08;2.10;;;1.45;;
57593;SDS011;43423;46.510;6.686;2022-07-06T04:38:34;1.50;;;1.40;;
57593;SDS011;43423;46.510;6.686;2022-07-06T04:41:00;3.33;;;1.55;;
57593;SDS011;43423;46.510;6.686;2022-07-06T04:43:26;2.28;;;1.20;;
57593;SDS011;43423;46.510;6.686;2022-07-06T04:45:51;1.60;;;1.40;;
57593;SDS011;43423;46.510;6.686;2022-07-06T04:48:17;2.13;;;1.40;;
57593;SDS011;43423;46.510;6.686;2022-07-06T04:50:42;2.25;;;1.40;;
57593;SDS011;43423;46.510;6.686;2022-07-06T04:53:08;3.17;;;1.70;;
57593;SDS011;43423;46.510;6.686;2022-07-06T04:55:34;2.20;;;1.65;;
57593;SDS011;43423;46.510;6.686;2022-07-06T04:57:59;4.00;;;1.70;;
57593;SDS011;43423;46.510;6.686;2022-07-06T05:00:25;3.80;;;1.70;;
57593;SDS011;43423;46.510;6.686;2022-07-06T05:02:51;1.75;;;1.50;;
57593;SDS011;43423;46.510;6.686;2022-07-06T05:05:16;1.77;;;1.45;;
57593;SDS011;43423;46.510;6.686;2022-07-06T05:07:42;2.88;;;1.45;;
57593;SDS011;43423;46.510;6.686;2022-07-06T05:10:11;2.95;;;1.60;;
57593;SDS011;43423;46.510;6.686;2022-07-06T05:12:37;2.95;;;1.50;;
57593;SDS011;43423;46.510;6.686;2022-07-06T05:15:02;5.60;;;1.90;;
57593;SDS011;43423;46.510;6.686;2022-07-06T05:17:28;4.15;;;1.80;;
57593;SDS011;43423;46.510;6.686;2022-07-06T05:19:54;4.10;;;1.52;;
57593;SDS011;43423;46.510;6.686;2022-07-06T05:22:19;2.75;;;1.42;;
57593;SDS011;43423;46.510;6.686;2022-07-06T05:24:45;7.07;;;1.75;;
57593;SDS011;43423;46.510;6.686;2022-07-06T05:27:11;7.63;;;1.52;;
57593;SDS011;43423;46.510;6.686;2022-07-06T05:29:36;2.95;;;1.60;;
57593;SDS011;43423;46.510;6.686;2022-07-06T05:32:02;4.53;;;1.50;;
57593;SDS011;43423;46.510;6.686;2022-07-06T05:34:28;3.97;;;1.88;;
57593;SDS011;43423;46.510;6.686;2022-07-06T05:36:53;3.15;;;1.65;;
57593;SDS011;43423;46.510;6.686;2022-07-06T05:39:19;6.10;;;1.80;;
57593;SDS011;43423;46.510;6.686;2022-07-06T05:41:46;9.73;;;2.95;;
57593;SDS011;43423;46.510;6.686;2022-07-06T05:44:12;11.43;;;2.10;;
57593;SDS011;43423;46.510;6.686;2022-07-06T05:46:37;8.20;;;2.00;;
57593;SDS011;43423;46.510;6.686;2022-07-06T05:49:03;5.90;;;1.98;;
57593;SDS011;43423;46.510;6.686;2022-07-06T05:51:47;3.40;;;2.13;;
57593;SDS011;43423;46.510;6.686;2022-07-06T05:54:13;4.40;;;1.92;;
57593;SDS011;43423;46.510;6.686;2022-07-06T05:56:38;1.50;;;1.25;;
57593;SDS011;43423;46.510;6.686;2022-07-06T05:59:03;3.83;;;1.60;;
57593;SDS011;43423;46.510;6.686;2022-07-06T06:01:29;1.80;;;1.50;;
57593;SDS011;43423;46.510;6.686;2022-07-06T06:03:55;1.70;;;1.60;;
57593;SDS011;43423;46.510;6.686;2022-07-06T06:06:20;3.58;;;1.20;;
57593;SDS011;43423;46.510;6.686;2022-07-06T06:08:46;3.60;;;1.60;;
57593;SDS011;43423;46.510;6.686;2022-07-06T06:11:11;2.28;;;1.50;;
57593;SDS011;43423;46.510;6.686;2022-07-06T06:13:37;2.90;;;1.70;;
57593;SDS011;43423;46.510;6.686;2022-07-06T06:16:02;3.08;;;1.65;;
57593;SDS011;43423;46.510;6.686;2022-07-06T06:18:28;1.65;;;1.45;;
57593;SDS011;43423;46.510;6.686;2022-07-06T06:20:53;4.50;;;1.55;;
57593;SDS011;43423;46.510;6.686;2022-07-06T06:23:19;2.53;;;1.48;;
57593;SDS011;43423;46.510;6.686;2022-07-06T06:25:44;1.75;;;1.52;;
57593;SDS011;43423;46.510;6.686;2022-07-06T06:28:10;1.52;;;1.42;;
57593;SDS011;43423;46.510;6.686;2022-07-06T06:30:36;2.20;;;1.50;;
57593;SDS011;43423;46.510;6.686;2022-07-06T06:35:36;4.65;;;1.70;;
57593;SDS011;43423;46.510;6.686;2022-07-06T06:38:02;4.43;;;1.50;;
57593;SDS011;43423;46.510;6.686;2022-07-06T06:40:28;2.30;;;1.50;;
57593;SDS011;43423;46.510;6.686;2022-07-06T06:42:54;2.22;;;1.67;;
57593;SDS011;43423;46.510;6.686;2022-07-06T06:45:19;2.05;;;1.70;;
57593;SDS011;43423;46.510;6.686;2022-07-06T06:47:45;4.75;;;1.63;;
57593;SDS011;43423;46.510;6.686;2022-07-06T06:50:10;1.65;;;1.40;;
57593;SDS011;43423;46.510;6.686;2022-07-06T06:52:36;1.55;;;1.45;;
57593;SDS011;43423;46.510;6.686;2022-07-06T06:55:01;2.95;;;1.60;;
57593;SDS011;43423;46.510;6.686;2022-07-06T06:57:27;3.10;;;1.48;;
57593;SDS011;43423;46.510;6.686;2022-07-06T06:59:54;3.03;;;1.40;;
57593;SDS011;43423;46.510;6.686;2022-07-06T07:02:20;3.83;;;1.90;;
57593;SDS011;43423;46.510;6.686;2022-07-06T07:04:45;2.38;;;1.73;;
57593;SDS011;43423;46.510;6.686;2022-07-06T07:07:11;1.55;;;1.45;;
57593;SDS011;43423;46.510;6.686;2022-07-06T07:09:36;2.80;;;1.80;;
57593;SDS011;43423;46.510;6.686;2022-07-06T07:12:02;7.78;;;1.90;;
57593;SDS011;43423;46.510;6.686;2022-07-06T07:14:27;2.22;;;1.77;;
57593;SDS011;43423;46.510;6.686;2022-07-06T07:16:53;3.45;;;1.88;;
57593;SDS011;43423;46.510;6.686;2022-07-06T07:19:18;2.75;;;1.90;;
57593;SDS011;43423;46.510;6.686;2022-07-06T07:21:44;2.45;;;1.70;;
57593;SDS011;43423;46.510;6.686;2022-07-06T07:24:09;1.50;;;1.40;;
57593;SDS011;43423;46.510;6.686;2022-07-06T07:26:35;2.03;;;1.77;;
57593;SDS011;43423;46.510;6.686;2022-07-06T07:29:01;2.95;;;1.50;;
57593;SDS011;43423;46.510;6.686;2022-07-06T07:31:26;5.00;;;1.70;;
57593;SDS011;43423;46.510;6.686;2022-07-06T07:33:51;2.20;;;1.90;;
57593;SDS011;43423;46.510;6.686;2022-07-06T07:36:17;1.83;;;1.70;;
57593;SDS011;43423;46.510;6.686;2022-07-06T07:38:42;1.73;;;1.63;;
57593;SDS011;43423;46.510;6.686;2022-07-06T07:41:08;1.55;;;1.45;;
57593;SDS011;43423;46.510;6.686;2022-07-06T07:43:36;2.60;;;1.60;;
57593;SDS011;43423;46.510;6.686;2022-07-06T07:46:01;6.18;;;1.88;;
57593;SDS011;43423;46.510;6.686;2022-07-06T07:48:27;2.17;;;1.70;;
57593;SDS011;43423;46.510;6.686;2022-07-06T07:50:53;3.30;;;1.80;;
57593;SDS011;43423;46.510;6.686;2022-07-06T07:53:18;2.00;;;1.90;;
57593;SDS011;43423;46.510;6.686;2022-07-06T07:55:44;2.83;;;1.75;;
57593;SDS011;43423;46.510;6.686;2022-07-06T07:58:10;3.70;;;1.90;;
57593;SDS011;43423;46.510;6.686;2022-07-06T08:00:35;3.03;;;2.30;;
57593;SDS011;43423;46.510;6.686;2022-07-06T08:03:01;3.92;;;2.00;;
57593;SDS011;43423;46.510;6.686;2022-07-06T08:05:26;2.75;;;1.83;;
57593;SDS011;43423;46.510;6.686;2022-07-06T08:07:52;5.22;;;2.13;;
57593;SDS011;43423;46.510;6.686;2022-07-06T08:10:18;1.80;;;1.55;;
57593;SDS011;43423;46.510;6.686;2022-07-06T08:12:44;3.58;;;1.95;;
57593;SDS011;43423;46.510;6.686;2022-07-06T08:15:09;3.67;;;1.80;;
57593;SDS011;43423;46.510;6.686;2022-07-06T08:17:35;3.75;;;1.92;;
57593;SDS011;43423;46.510;6.686;2022-07-06T08:20:01;2.38;;;1.60;;
57593;SDS011;43423;46.510;6.686;2022-07-06T08:22:26;1.95;;;1.65;;
57593;SDS011;43423;46.510;6.686;2022-07-06T08:24:52;2.95;;;2.10;;
57593;SDS011;43423;46.510;6.686;2022-07-06T08:27:17;2.63;;;1.70;;
57593;SDS011;43423;46.510;6.686;2022-07-06T08:29:43;3.35;;;2.17;;
57593;SDS011;43423;46.510;6.686;2022-07-06T08:32:09;3.30;;;1.83;;
57593;SDS011;43423;46.510;6.686;2022-07-06T08:34:35;2.92;;;1.77;;
57593;SDS011;43423;46.510;6.686;2022-07-06T08:37:01;2.60;;;1.70;;
57593;SDS011;43423;46.510;6.686;2022-07-06T08:39:26;3.33;;;1.80;;
57593;SDS011;43423;46.510;6.686;2022-07-06T08:41:52;2.47;;;1.75;;
57593;SDS011;43423;46.510;6.686;2022-07-06T08:44:20;2.22;;;1.65;;
57593;SDS011;43423;46.510;6.686;2022-07-06T08:46:45;4.60;;;1.90;;
57593;SDS011;43423;46.510;6.686;2022-07-06T08:49:15;1.83;;;1.70;;
57593;SDS011;43423;46.510;6.686;2022-07-06T08:51:42;2.50;;;2.08;;
57593;SDS011;43423;46.510;6.686;2022-07-06T08:54:08;5.07;;;1.95;;
57593;SDS011;43423;46.510;6.686;2022-07-06T08:56:34;3.28;;;2.40;;
57593;SDS011;43423;46.510;6.686;2022-07-06T08:59:00;1.98;;;1.80;;
57593;SDS011;43423;46.510;6.686;2022-07-06T09:01:25;2.67;;;2.00;;
57593;SDS011;43423;46.510;6.686;2022-07-06T09:03:51;9.35;;;2.13;;
57593;SDS011;43423;46.510;6.686;2022-07-06T09:06:21;3.78;;;1.95;;
57593;SDS011;43423;46.510;6.686;2022-07-06T09:08:49;2.47;;;1.90;;
57593;SDS011;43423;46.510;6.686;2022-07-06T09:11:19;2.25;;;1.83;;
57593;SDS011;43423;46.510;6.686;2022-07-06T09:13:46;2.45;;;2.15;;
57593;SDS011;43423;46.510;6.686;2022-07-06T09:16:13;2.05;;;1.95;;
57593;SDS011;43423;46.510;6.686;2022-07-06T09:18:40;2.47;;;1.77;;
57593;SDS011;43423;46.510;6.686;2022-07-06T09:21:08;2.78;;;2.08;;
57593;SDS011;43423;46.510;6.686;2022-07-06T09:23:35;5.93;;;2.08;;
57593;SDS011;43423;46.510;6.686;2022-07-06T09:26:05;5.95;;;2.03;;
57593;SDS011;43423;46.510;6.686;2022-07-06T09:28:43;2.20;;;1.77;;
57593;SDS011;43423;46.510;6.686;2022-07-06T09:31:10;2.85;;;2.03;;
57593;SDS011;43423;46.510;6.686;2022-07-06T09:33:36;2.20;;;2.00;;
57593;SDS011;43423;46.510;6.686;2022-07-06T09:36:01;2.85;;;2.28;;
57593;SDS011;43423;46.510;6.686;2022-07-06T09:38:28;3.92;;;2.22;;
57593;SDS011;43423;46.510;6.686;2022-07-06T09:40:54;2.58;;;1.77;;
57593;SDS011;43423;46.510;6.686;2022-07-06T09:43:20;2.30;;;2.10;;
57593;SDS011;43423;46.510;6.686;2022-07-06T09:45:54;2.58;;;1.92;;
57593;SDS011;43423;46.510;6.686;2022-07-06T09:48:21;2.22;;;2.03;;
57593;SDS011;43423;46.510;6.686;2022-07-06T09:50:55;3.30;;;1.77;;
57593;SDS011;43423;46.510;6.686;2022-07-06T09:53:34;3.40;;;1.90;;
57593;SDS011;43423;46.510;6.686;2022-07-06T09:56:01;2.10;;;1.90;;
57593;SDS011;43423;46.510;6.686;2022-07-06T09:58:27;3.85;;;2.10;;
57593;SDS011;43423;46.510;6.686;2022-07-06T10:00:53;3.08;;;2.03;;
57593;SDS011;43423;46.510;6.686;2022-07-06T10:03:19;1.90;;;1.80;;
57593;SDS011;43423;46.510;6.686;2022-07-06T10:05:45;2.92;;;2.08;;
57593;SDS011;43423;46.510;6.686;2022-07-06T10:08:13;3.38;;;2.17;;
57593;SDS011;43423;46.510;6.686;2022-07-06T10:10:40;7.03;;;2.28;;
57593;SDS011;43423;46.510;6.686;2022-07-06T10:13:06;5.45;;;1.92;;
57593;SDS011;43423;46.510;6.686;2022-07-06T10:15:33;3.83;;;2.00;;
57593;SDS011;43423;46.510;6.686;2022-07-06T10:18:01;3.78;;;2.17;;
57593;SDS011;43423;46.510;6.686;2022-07-06T10:20:29;2.10;;;1.95;;
57593;SDS011;43423;46.510;6.686;2022-07-06T10:22:58;3.35;;;2.28;;
57593;SDS011;43423;46.510;6.686;2022-07-06T10:25:25;2.65;;;1.98;;
57593;SDS011;43423;46.510;6.686;2022-07-06T10:27:51;2.78;;;2.10;;
57593;SDS011;43423;46.510;6.686;2022-07-06T10:30:20;2.70;;;2.00;;
57593;SDS011;43423;46.510;6.686;2022-07-06T10:32:47;2.67;;;1.85;;
57593;SDS011;43423;46.510;6.686;2022-07-06T10:35:15;3.50;;;2.10;;
57593;SDS011;43423;46.510;6.686;2022-07-06T10:37:42;2.65;;;2.10;;
57593;SDS011;43423;46.510;6.686;2022-07-06T10:40:07;4.95;;;2.38;;
57593;SDS011;43423;46.510;6.686;2022-07-06T10:42:58;2.88;;;2.00;;
57593;SDS011;43423;46.510;6.686;2022-07-06T10:48:15;3.13;;;1.83;;
57593;SDS011;43423;46.510;6.686;2022-07-06T10:51:01;2.90;;;2.22;;
57593;SDS011;43423;46.510;6.686;2022-07-06T10:53:33;2.85;;;2.20;;
57593;SDS011;43423;46.510;6.686;2022-07-06T10:56:04;2.47;;;1.90;;
57593;SDS011;43423;46.510;6.686;2022-07-06T10:58:41;4.82;;;2.22;;
57593;SDS011;43423;46.510;6.686;2022-07-06T11:01:12;2.38;;;2.10;;
57593;SDS011;43423;46.510;6.686;2022-07-06T11:06:22;2.13;;;1.90;;
57593;SDS011;43423;46.510;6.686;2022-07-06T11:08:50;6.00;;;1.83;;
57593;SDS011;43423;46.510;6.686;2022-07-06T11:14:06;3.90;;;2.10;;
57593;SDS011;43423;46.510;6.686;2022-07-06T11:19:14;5.57;;;2.30;;
57593;SDS011;43423;46.510;6.686;2022-07-06T11:24:13;3.83;;;2.00;;
57593;SDS011;43423;46.510;6.686;2022-07-06T11:26:40;3.47;;;2.13;;
57593;SDS011;43423;46.510;6.686;2022-07-06T11:29:08;3.88;;;2.10;;
57593;SDS011;43423;46.510;6.686;2022-07-06T11:31:39;2.67;;;1.75;;
57593;SDS011;43423;46.510;6.686;2022-07-06T11:34:07;2.35;;;1.88;;
57593;SDS011;43423;46.510;6.686;2022-07-06T11:36:33;2.13;;;1.92;;
57593;SDS011;43423;46.510;6.686;2022-07-06T11:38:59;3.70;;;2.15;;
57593;SDS011;43423;46.510;6.686;2022-07-06T11:41:25;2.08;;;1.90;;
57593;SDS011;43423;46.510;6.686;2022-07-06T11:43:50;2.00;;;1.80;;
57593;SDS011;43423;46.510;6.686;2022-07-06T11:46:19;2.72;;;2.13;;
57593;SDS011;43423;46.510;6.686;2022-07-06T11:48:52;3.47;;;1.77;;
57593;SDS011;43423;46.510;6.686;2022-07-06T11:51:20;6.82;;;2.17;;
57593;SDS011;43423;46.510;6.686;2022-07-06T11:53:46;2.40;;;2.20;;
57593;SDS011;43423;46.510;6.686;2022-07-06T11:56:16;2.63;;;1.80;;
57593;SDS011;43423;46.510;6.686;2022-07-06T11:58:48;2.80;;;1.90;;
57593;SDS011;43423;46.510;6.686;2022-07-06T12:01:15;4.32;;;2.00;;
57593;SDS011;43423;46.510;6.686;2022-07-06T12:03:41;2.30;;;2.10;;
57593;SDS011;43423;46.510;6.686;2022-07-06T12:06:18;2.90;;;1.80;;
57593;SDS011;43423;46.510;6.686;2022-07-06T12:08:56;7.90;;;2.38;;
57593;SDS011;43423;46.510;6.686;2022-07-06T12:11:24;2.00;;;1.85;;
57593;SDS011;43423;46.510;6.686;2022-07-06T12:13:52;3.08;;;2.03;;
57593;SDS011;43423;46.510;6.686;2022-07-06T12:16:19;11.77;;;2.17;;
57593;SDS011;43423;46.510;6.686;2022-07-06T12:18:48;2.75;;;2.08;;
57593;SDS011;43423;46.510;6.686;2022-07-06T12:21:15;2.58;;;2.30;;
57593;SDS011;43423;46.510;6.686;2022-07-06T12:23:46;2.83;;;2.00;;
57593;SDS011;43423;46.510;6.686;2022-07-06T12:26:14;3.92;;;2.10;;
57593;SDS011;43423;46.510;6.686;2022-07-06T12:28:41;5.53;;;2.05;;
57593;SDS011;43423;46.510;6.686;2022-07-06T12:31:07;2.08;;;1.70;;
57593;SDS011;43423;46.510;6.686;2022-07-06T12:33:34;3.45;;;1.92;;
57593;SDS011;43423;46.510;6.686;2022-07-06T12:36:11;4.75;;;2.10;;
57593;SDS011;43423;46.510;6.686;2022-07-06T12:38:43;2.42;;;1.90;;
57593;SDS011;43423;46.510;6.686;2022-07-06T12:41:10;3.65;;;1.90;;
57593;SDS011;43423;46.510;6.686;2022-07-06T12:43:39;3.45;;;2.00;;
57593;SDS011;43423;46.510;6.686;2022-07-06T12:48:55;4.28;;;2.30;;
57593;SDS011;43423;46.510;6.686;2022-07-06T12:51:21;3.38;;;1.85;;
57593;SDS011;43423;46.510;6.686;2022-07-06T12:53:47;4.15;;;2.15;;
57593;SDS011;43423;46.510;6.686;2022-07-06T12:56:12;1.73;;;1.63;;
57593;SDS011;43423;46.510;6.686;2022-07-06T12:58:39;2.10;;;1.90;;
57593;SDS011;43423;46.510;6.686;2022-07-06T13:01:18;4.53;;;1.80;;
57593;SDS011;43423;46.510;6.686;2022-07-06T13:03:44;3.17;;;2.15;;
57593;SDS011;43423;46.510;6.686;2022-07-06T13:06:09;2.90;;;2.00;;
57593;SDS011;43423;46.510;6.686;2022-07-06T13:08:35;4.13;;;2.10;;
57593;SDS011;43423;46.510;6.686;2022-07-06T13:11:01;6.00;;;2.00;;
57593;SDS011;43423;46.510;6.686;2022-07-06T13:13:26;2.92;;;1.85;;
57593;SDS011;43423;46.510;6.686;2022-07-06T13:15:51;5.47;;;2.20;;
57593;SDS011;43423;46.510;6.686;2022-07-06T13:18:17;4.05;;;1.92;;
57593;SDS011;43423;46.510;6.686;2022-07-06T13:20:44;6.53;;;2.55;;
57593;SDS011;43423;46.510;6.686;2022-07-06T13:23:10;2.00;;;1.85;;
57593;SDS011;43423;46.510;6.686;2022-07-06T13:25:36;2.20;;;1.98;;
57593;SDS011;43423;46.510;6.686;2022-07-06T13:28:01;2.20;;;1.90;;
57593;SDS011;43423;46.510;6.686;2022-07-06T13:30:27;2.38;;;1.98;;
57593;SDS011;43423;46.510;6.686;2022-07-06T13:32:53;6.82;;;2.28;;
57593;SDS011;43423;46.510;6.686;2022-07-06T13:35:18;2.10;;;1.90;;
57593;SDS011;43423;46.510;6.686;2022-07-06T13:37:44;2.65;;;1.90;;
57593;SDS011;43423;46.510;6.686;2022-07-06T13:40:12;2.92;;;2.20;;
57593;SDS011;43423;46.510;6.686;2022-07-06T13:42:37;6.30;;;2.08;;
57593;SDS011;43423;46.510;6.686;2022-07-06T13:45:03;2.83;;;2.10;;
57593;SDS011;43423;46.510;6.686;2022-07-06T13:47:29;2.15;;;1.80;;
57593;SDS011;43423;46.510;6.686;2022-07-06T13:49:55;3.20;;;1.70;;
57593;SDS011;43423;46.510;6.686;2022-07-06T13:52:20;2.17;;;2.00;;
57593;SDS011;43423;46.510;6.686;2022-07-06T13:54:46;4.25;;;2.22;;
57593;SDS011;43423;46.510;6.686;2022-07-06T13:57:11;2.75;;;2.20;;
57593;SDS011;43423;46.510;6.686;2022-07-06T13:59:36;4.07;;;2.05;;
57593;SDS011;43423;46.510;6.686;2022-07-06T14:02:02;3.97;;;2.10;;
57593;SDS011;43423;46.510;6.686;2022-07-06T14:04:27;3.90;;;2.17;;
57593;SDS011;43423;46.510;6.686;2022-07-06T14:06:53;3.38;;;2.20;;
57593;SDS011;43423;46.510;6.686;2022-07-06T14:09:18;3.65;;;1.92;;
57593;SDS011;43423;46.510;6.686;2022-07-06T14:11:44;2.65;;;1.98;;
57593;SDS011;43423;46.510;6.686;2022-07-06T14:14:10;2.38;;;1.65;;
57593;SDS011;43423;46.510;6.686;2022-07-06T14:16:35;1.92;;;1.83;;
57593;SDS011;43423;46.510;6.686;2022-07-06T14:19:01;2.50;;;2.30;;
57593;SDS011;43423;46.510;6.686;2022-07-06T14:21:26;5.88;;;2.00;;
57593;SDS011;43423;46.510;6.686;2022-07-06T14:23:52;2.45;;;2.17;;
57593;SDS011;43423;46.510;6.686;2022-07-06T14:26:17;2.92;;;2.00;;
57593;SDS011;43423;46.510;6.686;2022-07-06T14:28:43;6.15;;;2.28;;
57593;SDS011;43423;46.510;6.686;2022-07-06T14:31:08;5.88;;;2.40;;
57593;SDS011;43423;46.510;6.686;2022-07-06T14:33:34;3.88;;;2.72;;
57593;SDS011;43423;46.510;6.686;2022-07-06T14:35:59;3.58;;;2.08;;
57593;SDS011;43423;46.510;6.686;2022-07-06T14:38:25;2.50;;;1.85;;
57593;SDS011;43423;46.510;6.686;2022-07-06T14:40:52;2.42;;;2.22;;
57593;SDS011;43423;46.510;6.686;2022-07-06T14:43:18;4.15;;;2.20;;
57593;SDS011;43423;46.510;6.686;2022-07-06T14:45:44;4.25;;;2.20;;
57593;SDS011;43423;46.510;6.686;2022-07-06T14:48:10;3.75;;;2.20;;
57593;SDS011;43423;46.510;6.686;2022-07-06T14:50:35;5.18;;;2.30;;
57593;SDS011;43423;46.510;6.686;2022-07-06T14:53:01;4.70;;;2.17;;
57593;SDS011;43423;46.510;6.686;2022-07-06T14:55:27;4.90;;;2.15;;
57593;SDS011;43423;46.510;6.686;2022-07-06T14:57:52;2.47;;;2.15;;
57593;SDS011;43423;46.510;6.686;2022-07-06T15:00:20;2.30;;;2.10;;
57593;SDS011;43423;46.510;6.686;2022-07-06T15:02:46;3.00;;;1.85;;
57593;SDS011;43423;46.510;6.686;2022-07-06T15:05:12;3.10;;;2.30;;